sensor_id;sensor_type;location;lat;lon;timestamp;P1;durP1;ratioP1;P2;durP2;ratioP2
78778;SDS011;68121;52.404;5.318;2023-04-03T00:01:41;1.92;;;0.70;;
78778;SDS011;68121;52.404;5.318;2023-04-03T00:04:07;1.80;;;0.73;;
78778;SDS011;68121;52.404;5.318;2023-04-03T00:06:33;1.30;;;0.63;;
78778;SDS011;68121;52.404;5.318;2023-04-03T00:09:00;1.63;;;0.60;;
78778;SDS011;68121;52.404;5.318;2023-04-03T00:11:26;2.78;;;0.98;;
78778;SDS011;68121;52.404;5.318;2023-04-03T00:13:52;2.38;;;0.77;;
78778;SDS011;68121;52.404;5.318;2023-04-03T00:16:18;1.27;;;0.70;;
78778;SDS011;68121;52.404;5.318;2023-04-03T00:18:44;2.63;;;0.80;;
78778;SDS011;68121;52.404;5.318;2023-04-03T00:21:12;1.35;;;0.80;;
78778;SDS011;68121;52.404;5.318;2023-04-03T00:23:39;1.35;;;0.70;;
78778;SDS011;68121;52.404;5.318;2023-04-03T00:26:05;1.02;;;0.60;;
78778;SDS011;68121;52.404;5.318;2023-04-03T00:28:31;1.42;;;0.77;;
78778;SDS011;68121;52.404;5.318;2023-04-03T00:30:57;1.20;;;0.45;;
78778;SDS011;68121;52.404;5.318;2023-04-03T00:33:24;4.53;;;0.88;;
78778;SDS011;68121;52.404;5.318;2023-04-03T00:35:50;1.08;;;0.65;;
78778;SDS011;68121;52.404;5.318;2023-04-03T00:38:17;1.77;;;0.82;;
78778;SDS011;68121;52.404;5.318;2023-04-03T00:40:44;2.90;;;0.90;;
78778;SDS011;68121;52.404;5.318;2023-04-03T00:43:14;2.33;;;0.85;;
78778;SDS011;68121;52.404;5.318;2023-04-03T00:45:44;2.55;;;0.90;;
78778;SDS011;68121;52.404;5.318;2023-04-03T00:48:13;1.92;;;0.90;;
78778;SDS011;68121;52.404;5.318;2023-04-03T00:50:44;2.83;;;0.70;;
78778;SDS011;68121;52.404;5.318;2023-04-03T00:53:12;2.90;;;0.80;;
78778;SDS011;68121;52.404;5.318;2023-04-03T00:55:44;1.23;;;0.60;;
78778;SDS011;68121;52.404;5.318;2023-04-03T00:58:15;2.90;;;0.80;;
78778;SDS011;68121;52.404;5.318;2023-04-03T01:00:45;2.47;;;1.05;;
78778;SDS011;68121;52.404;5.318;2023-04-03T01:03:14;0.90;;;0.63;;
78778;SDS011;68121;52.404;5.318;2023-04-03T01:05:40;1.95;;;0.82;;
78778;SDS011;68121;52.404;5.318;2023-04-03T01:08:07;1.77;;;0.73;;
78778;SDS011;68121;52.404;5.318;2023-04-03T01:10:33;2.70;;;0.70;;
78778;SDS011;68121;52.404;5.318;2023-04-03T01:12:59;2.70;;;0.77;;
78778;SDS011;68121;52.404;5.318;2023-04-03T01:15:27;1.30;;;0.75;;
78778;SDS011;68121;52.404;5.318;2023-04-03T01:18:00;3.90;;;0.93;;
78778;SDS011;68121;52.404;5.318;2023-04-03T01:25:49;2.80;;;0.70;;
78778;SDS011;68121;52.404;5.318;2023-04-03T01:28:18;2.55;;;0.82;;
78778;SDS011;68121;52.404;5.318;2023-04-03T01:33:59;3.13;;;0.80;;
78778;SDS011;68121;52.404;5.318;2023-04-03T01:36:27;1.25;;;0.65;;
78778;SDS011;68121;52.404;5.318;2023-04-03T01:38:55;2.42;;;0.85;;
78778;SDS011;68121;52.404;5.318;2023-04-03T01:41:22;1.75;;;1.10;;
78778;SDS011;68121;52.404;5.318;2023-04-03T01:43:49;2.35;;;1.00;;
78778;SDS011;68121;52.404;5.318;2023-04-03T01:46:15;3.78;;;0.80;;
78778;SDS011;68121;52.404;5.318;2023-04-03T01:48:44;2.00;;;0.73;;
78778;SDS011;68121;52.404;5.318;2023-04-03T01:51:10;1.75;;;0.93;;
78778;SDS011;68121;52.404;5.318;2023-04-03T01:53:36;2.75;;;0.82;;
78778;SDS011;68121;52.404;5.318;2023-04-03T01:56:03;1.27;;;0.52;;
78778;SDS011;68121;52.404;5.318;2023-04-03T01:58:29;2.80;;;0.77;;
78778;SDS011;68121;52.404;5.318;2023-04-03T02:00:55;3.20;;;0.80;;
78778;SDS011;68121;52.404;5.318;2023-04-03T02:03:22;2.15;;;0.77;;
78778;SDS011;68121;52.404;5.318;2023-04-03T02:05:48;1.35;;;0.70;;
78778;SDS011;68121;52.404;5.318;2023-04-03T02:08:15;4.43;;;0.80;;
78778;SDS011;68121;52.404;5.318;2023-04-03T02:10:44;3.25;;;1.02;;
78778;SDS011;68121;52.404;5.318;2023-04-03T02:13:13;2.20;;;0.90;;
78778;SDS011;68121;52.404;5.318;2023-04-03T02:15:40;3.05;;;0.90;;
78778;SDS011;68121;52.404;5.318;2023-04-03T02:18:06;2.42;;;0.70;;
78778;SDS011;68121;52.404;5.318;2023-04-03T02:20:32;2.03;;;0.93;;
78778;SDS011;68121;52.404;5.318;2023-04-03T02:22:59;2.88;;;0.93;;
78778;SDS011;68121;52.404;5.318;2023-04-03T02:25:25;4.32;;;1.00;;
78778;SDS011;68121;52.404;5.318;2023-04-03T02:27:51;3.53;;;0.93;;
78778;SDS011;68121;52.404;5.318;2023-04-03T02:30:17;3.65;;;0.80;;
78778;SDS011;68121;52.404;5.318;2023-04-03T02:32:44;2.45;;;0.95;;
78778;SDS011;68121;52.404;5.318;2023-04-03T02:35:10;2.92;;;0.90;;
78778;SDS011;68121;52.404;5.318;2023-04-03T02:37:37;2.67;;;0.93;;
78778;SDS011;68121;52.404;5.318;2023-04-03T02:40:03;5.07;;;1.00;;
78778;SDS011;68121;52.404;5.318;2023-04-03T02:42:30;3.25;;;0.85;;
78778;SDS011;68121;52.404;5.318;2023-04-03T02:44:56;2.33;;;0.75;;
78778;SDS011;68121;52.404;5.318;2023-04-03T02:47:23;2.55;;;0.88;;
78778;SDS011;68121;52.404;5.318;2023-04-03T02:49:49;2.83;;;0.88;;
78778;SDS011;68121;52.404;5.318;2023-04-03T02:52:18;3.78;;;1.05;;
78778;SDS011;68121;52.404;5.318;2023-04-03T02:54:44;2.25;;;1.20;;
78778;SDS011;68121;52.404;5.318;2023-04-03T02:57:10;3.25;;;1.23;;
78778;SDS011;68121;52.404;5.318;2023-04-03T02:59:36;4.50;;;1.38;;
78778;SDS011;68121;52.404;5.318;2023-04-03T03:02:06;1.98;;;0.82;;
78778;SDS011;68121;52.404;5.318;2023-04-03T03:04:37;2.33;;;1.20;;
78778;SDS011;68121;52.404;5.318;2023-04-03T03:07:03;2.35;;;0.80;;
78778;SDS011;68121;52.404;5.318;2023-04-03T03:09:29;1.55;;;1.08;;
78778;SDS011;68121;52.404;5.318;2023-04-03T03:11:56;5.28;;;1.10;;
78778;SDS011;68121;52.404;5.318;2023-04-03T03:14:22;2.83;;;1.08;;
78778;SDS011;68121;52.404;5.318;2023-04-03T03:16:49;1.83;;;1.05;;
78778;SDS011;68121;52.404;5.318;2023-04-03T03:19:15;5.22;;;1.00;;
78778;SDS011;68121;52.404;5.318;2023-04-03T03:21:41;1.88;;;0.95;;
78778;SDS011;68121;52.404;5.318;2023-04-03T03:24:07;4.18;;;1.25;;
78778;SDS011;68121;52.404;5.318;2023-04-03T03:26:34;2.65;;;1.20;;
78778;SDS011;68121;52.404;5.318;2023-04-03T03:29:00;2.47;;;0.90;;
78778;SDS011;68121;52.404;5.318;2023-04-03T03:31:26;3.15;;;1.08;;
78778;SDS011;68121;52.404;5.318;2023-04-03T03:33:52;3.63;;;1.25;;
78778;SDS011;68121;52.404;5.318;2023-04-03T03:36:18;2.67;;;1.00;;
78778;SDS011;68121;52.404;5.318;2023-04-03T03:38:44;2.72;;;0.88;;
78778;SDS011;68121;52.404;5.318;2023-04-03T03:41:10;2.80;;;1.00;;
78778;SDS011;68121;52.404;5.318;2023-04-03T03:43:36;2.97;;;1.30;;
78778;SDS011;68121;52.404;5.318;2023-04-03T03:46:03;3.47;;;1.00;;
78778;SDS011;68121;52.404;5.318;2023-04-03T03:48:29;1.83;;;0.88;;
78778;SDS011;68121;52.404;5.318;2023-04-03T03:50:56;3.63;;;1.42;;
78778;SDS011;68121;52.404;5.318;2023-04-03T03:53:22;2.42;;;1.00;;
78778;SDS011;68121;52.404;5.318;2023-04-03T03:55:48;3.15;;;1.10;;
78778;SDS011;68121;52.404;5.318;2023-04-03T03:58:14;2.95;;;1.27;;
78778;SDS011;68121;52.404;5.318;2023-04-03T04:00:40;3.15;;;0.93;;
78778;SDS011;68121;52.404;5.318;2023-04-03T04:03:06;4.00;;;1.50;;
78778;SDS011;68121;52.404;5.318;2023-04-03T04:05:32;4.32;;;1.25;;
78778;SDS011;68121;52.404;5.318;2023-04-03T04:07:58;2.75;;;1.05;;
78778;SDS011;68121;52.404;5.318;2023-04-03T04:10:24;4.10;;;1.33;;
78778;SDS011;68121;52.404;5.318;2023-04-03T04:12:50;1.90;;;1.15;;
78778;SDS011;68121;52.404;5.318;2023-04-03T04:15:17;1.27;;;1.10;;
78778;SDS011;68121;52.404;5.318;2023-04-03T04:17:43;3.22;;;0.90;;
78778;SDS011;68121;52.404;5.318;2023-04-03T04:20:09;2.08;;;1.17;;
78778;SDS011;68121;52.404;5.318;2023-04-03T04:22:37;2.55;;;1.17;;
78778;SDS011;68121;52.404;5.318;2023-04-03T04:25:04;3.53;;;1.33;;
78778;SDS011;68121;52.404;5.318;2023-04-03T04:27:30;2.70;;;1.25;;
78778;SDS011;68121;52.404;5.318;2023-04-03T04:29:56;4.05;;;1.40;;
78778;SDS011;68121;52.404;5.318;2023-04-03T04:32:22;1.25;;;1.02;;
78778;SDS011;68121;52.404;5.318;2023-04-03T04:34:48;1.83;;;0.98;;
78778;SDS011;68121;52.404;5.318;2023-04-03T04:37:14;3.90;;;1.13;;
78778;SDS011;68121;52.404;5.318;2023-04-03T04:39:41;1.52;;;1.00;;
78778;SDS011;68121;52.404;5.318;2023-04-03T04:42:07;2.55;;;1.48;;
78778;SDS011;68121;52.404;5.318;2023-04-03T04:44:38;2.90;;;1.55;;
78778;SDS011;68121;52.404;5.318;2023-04-03T04:47:05;3.70;;;1.20;;
78778;SDS011;68121;52.404;5.318;2023-04-03T04:49:32;3.78;;;0.95;;
78778;SDS011;68121;52.404;5.318;2023-04-03T04:51:58;1.98;;;1.17;;
78778;SDS011;68121;52.404;5.318;2023-04-03T04:54:24;3.30;;;1.05;;
78778;SDS011;68121;52.404;5.318;2023-04-03T04:56:50;3.83;;;1.42;;
78778;SDS011;68121;52.404;5.318;2023-04-03T04:59:16;2.17;;;0.90;;
78778;SDS011;68121;52.404;5.318;2023-04-03T05:01:42;2.63;;;1.52;;
78778;SDS011;68121;52.404;5.318;2023-04-03T05:04:08;3.00;;;1.13;;
78778;SDS011;68121;52.404;5.318;2023-04-03T05:06:34;1.88;;;1.08;;
78778;SDS011;68121;52.404;5.318;2023-04-03T05:09:01;6.68;;;1.25;;
78778;SDS011;68121;52.404;5.318;2023-04-03T05:11:28;3.30;;;1.45;;
78778;SDS011;68121;52.404;5.318;2023-04-03T05:13:54;3.28;;;1.40;;
78778;SDS011;68121;52.404;5.318;2023-04-03T05:16:20;3.83;;;1.02;;
78778;SDS011;68121;52.404;5.318;2023-04-03T05:18:46;2.90;;;1.17;;
78778;SDS011;68121;52.404;5.318;2023-04-03T05:21:12;4.38;;;1.50;;
78778;SDS011;68121;52.404;5.318;2023-04-03T05:23:38;4.95;;;1.50;;
78778;SDS011;68121;52.404;5.318;2023-04-03T05:26:04;3.50;;;1.35;;
78778;SDS011;68121;52.404;5.318;2023-04-03T05:28:31;2.58;;;1.35;;
78778;SDS011;68121;52.404;5.318;2023-04-03T05:30:57;2.50;;;1.00;;
78778;SDS011;68121;52.404;5.318;2023-04-03T05:33:24;4.18;;;1.20;;
78778;SDS011;68121;52.404;5.318;2023-04-03T05:35:52;5.97;;;1.10;;
78778;SDS011;68121;52.404;5.318;2023-04-03T05:38:19;6.28;;;1.35;;
78778;SDS011;68121;52.404;5.318;2023-04-03T05:40:45;3.22;;;1.40;;
78778;SDS011;68121;52.404;5.318;2023-04-03T05:43:11;3.47;;;1.50;;
78778;SDS011;68121;52.404;5.318;2023-04-03T05:45:37;5.30;;;1.17;;
78778;SDS011;68121;52.404;5.318;2023-04-03T05:48:03;2.72;;;1.10;;
78778;SDS011;68121;52.404;5.318;2023-04-03T05:50:30;2.47;;;1.50;;
78778;SDS011;68121;52.404;5.318;2023-04-03T05:52:57;4.00;;;1.15;;
78778;SDS011;68121;52.404;5.318;2023-04-03T05:55:24;3.38;;;1.33;;
78778;SDS011;68121;52.404;5.318;2023-04-03T05:57:50;2.65;;;0.93;;
78778;SDS011;68121;52.404;5.318;2023-04-03T06:00:17;5.65;;;1.48;;
78778;SDS011;68121;52.404;5.318;2023-04-03T06:02:43;3.00;;;1.40;;
78778;SDS011;68121;52.404;5.318;2023-04-03T06:05:09;5.28;;;1.20;;
78778;SDS011;68121;52.404;5.318;2023-04-03T06:07:37;3.17;;;1.60;;
78778;SDS011;68121;52.404;5.318;2023-04-03T06:10:03;5.22;;;1.40;;
78778;SDS011;68121;52.404;5.318;2023-04-03T06:12:30;3.55;;;1.20;;
78778;SDS011;68121;52.404;5.318;2023-04-03T06:14:56;4.13;;;1.55;;
78778;SDS011;68121;52.404;5.318;2023-04-03T06:17:23;1.65;;;1.10;;
78778;SDS011;68121;52.404;5.318;2023-04-03T06:19:49;5.25;;;1.50;;
78778;SDS011;68121;52.404;5.318;2023-04-03T06:22:15;6.03;;;1.20;;
78778;SDS011;68121;52.404;5.318;2023-04-03T06:24:41;2.17;;;1.10;;
78778;SDS011;68121;52.404;5.318;2023-04-03T06:27:09;1.67;;;0.88;;
78778;SDS011;68121;52.404;5.318;2023-04-03T06:29:36;3.03;;;1.30;;
78778;SDS011;68121;52.404;5.318;2023-04-03T06:32:02;2.15;;;1.10;;
78778;SDS011;68121;52.404;5.318;2023-04-03T06:34:29;3.78;;;1.23;;
78778;SDS011;68121;52.404;5.318;2023-04-03T06:36:55;3.35;;;1.23;;
78778;SDS011;68121;52.404;5.318;2023-04-03T06:39:21;4.20;;;1.30;;
78778;SDS011;68121;52.404;5.318;2023-04-03T06:41:50;3.22;;;1.10;;
78778;SDS011;68121;52.404;5.318;2023-04-03T06:44:17;4.20;;;1.77;;
78778;SDS011;68121;52.404;5.318;2023-04-03T06:46:43;3.13;;;1.42;;
78778;SDS011;68121;52.404;5.318;2023-04-03T06:49:10;4.50;;;1.27;;
78778;SDS011;68121;52.404;5.318;2023-04-03T06:51:36;4.30;;;1.58;;
78778;SDS011;68121;52.404;5.318;2023-04-03T06:54:03;5.13;;;1.67;;
78778;SDS011;68121;52.404;5.318;2023-04-03T06:56:31;4.30;;;1.35;;
78778;SDS011;68121;52.404;5.318;2023-04-03T06:58:58;2.30;;;0.98;;
78778;SDS011;68121;52.404;5.318;2023-04-03T07:01:25;3.67;;;1.33;;
78778;SDS011;68121;52.404;5.318;2023-04-03T07:03:54;4.75;;;1.55;;
78778;SDS011;68121;52.404;5.318;2023-04-03T07:06:21;2.47;;;1.08;;
78778;SDS011;68121;52.404;5.318;2023-04-03T07:08:47;1.90;;;1.05;;
78778;SDS011;68121;52.404;5.318;2023-04-03T07:11:14;3.67;;;1.40;;
78778;SDS011;68121;52.404;5.318;2023-04-03T07:13:40;2.10;;;1.15;;
78778;SDS011;68121;52.404;5.318;2023-04-03T07:16:07;8.60;;;1.33;;
78778;SDS011;68121;52.404;5.318;2023-04-03T07:18:34;3.72;;;1.65;;
78778;SDS011;68121;52.404;5.318;2023-04-03T07:21:00;3.63;;;0.93;;
78778;SDS011;68121;52.404;5.318;2023-04-03T07:23:29;3.53;;;0.95;;
78778;SDS011;68121;52.404;5.318;2023-04-03T07:25:55;1.50;;;1.05;;
78778;SDS011;68121;52.404;5.318;2023-04-03T07:28:22;1.88;;;1.00;;
78778;SDS011;68121;52.404;5.318;2023-04-03T07:30:49;3.97;;;1.40;;
78778;SDS011;68121;52.404;5.318;2023-04-03T07:33:17;2.03;;;1.40;;
78778;SDS011;68121;52.404;5.318;2023-04-03T07:35:45;3.30;;;0.80;;
78778;SDS011;68121;52.404;5.318;2023-04-03T07:38:11;3.97;;;1.20;;
78778;SDS011;68121;52.404;5.318;2023-04-03T07:40:37;1.92;;;0.82;;
78778;SDS011;68121;52.404;5.318;2023-04-03T07:43:04;3.90;;;1.30;;
78778;SDS011;68121;52.404;5.318;2023-04-03T07:45:30;2.75;;;0.90;;
78778;SDS011;68121;52.404;5.318;2023-04-03T07:47:57;2.85;;;1.10;;
78778;SDS011;68121;52.404;5.318;2023-04-03T07:50:23;4.32;;;1.42;;
78778;SDS011;68121;52.404;5.318;2023-04-03T07:52:50;2.25;;;0.93;;
78778;SDS011;68121;52.404;5.318;2023-04-03T07:55:18;3.28;;;0.85;;
78778;SDS011;68121;52.404;5.318;2023-04-03T07:57:44;3.38;;;1.30;;
78778;SDS011;68121;52.404;5.318;2023-04-03T08:00:10;2.78;;;0.90;;
78778;SDS011;68121;52.404;5.318;2023-04-03T08:02:37;4.60;;;1.20;;
78778;SDS011;68121;52.404;5.318;2023-04-03T08:05:03;2.70;;;1.08;;
78778;SDS011;68121;52.404;5.318;2023-04-03T08:07:30;4.32;;;1.08;;
78778;SDS011;68121;52.404;5.318;2023-04-03T08:09:56;3.60;;;1.08;;
78778;SDS011;68121;52.404;5.318;2023-04-03T08:12:22;3.25;;;1.25;;
78778;SDS011;68121;52.404;5.318;2023-04-03T08:14:48;4.32;;;1.52;;
78778;SDS011;68121;52.404;5.318;2023-04-03T08:17:14;3.45;;;0.80;;
78778;SDS011;68121;52.404;5.318;2023-04-03T08:19:40;6.68;;;1.02;;
78778;SDS011;68121;52.404;5.318;2023-04-03T08:22:06;3.67;;;0.90;;
78778;SDS011;68121;52.404;5.318;2023-04-03T08:24:33;2.78;;;1.02;;
78778;SDS011;68121;52.404;5.318;2023-04-03T08:26:59;6.40;;;0.90;;
78778;SDS011;68121;52.404;5.318;2023-04-03T08:29:26;2.70;;;0.93;;
78778;SDS011;68121;52.404;5.318;2023-04-03T08:31:52;3.15;;;1.08;;
78778;SDS011;68121;52.404;5.318;2023-04-03T08:34:19;1.00;;;0.73;;
78778;SDS011;68121;52.404;5.318;2023-04-03T08:36:45;4.00;;;0.90;;
78778;SDS011;68121;52.404;5.318;2023-04-03T08:39:12;2.63;;;1.00;;
78778;SDS011;68121;52.404;5.318;2023-04-03T08:49:48;1.25;;;0.60;;
78778;SDS011;68121;52.404;5.318;2023-04-03T08:52:25;1.40;;;0.50;;
78778;SDS011;68121;52.404;5.318;2023-04-03T08:55:12;2.35;;;0.70;;
78778;SDS011;68121;52.404;5.318;2023-04-03T08:57:46;1.95;;;0.88;;
78778;SDS011;68121;52.404;5.318;2023-04-03T09:00:18;2.10;;;0.40;;
78778;SDS011;68121;52.404;5.318;2023-04-03T09:02:47;2.53;;;1.02;;
78778;SDS011;68121;52.404;5.318;2023-04-03T09:05:19;1.42;;;0.80;;
78778;SDS011;68121;52.404;5.318;2023-04-03T09:07:57;1.08;;;0.50;;
78778;SDS011;68121;52.404;5.318;2023-04-03T09:10:32;0.80;;;0.40;;
78778;SDS011;68121;52.404;5.318;2023-04-03T09:13:13;0.93;;;0.65;;
78778;SDS011;68121;52.404;5.318;2023-04-03T09:15:47;1.20;;;0.50;;
78778;SDS011;68121;52.404;5.318;2023-04-03T09:18:15;0.75;;;0.50;;
78778;SDS011;68121;52.404;5.318;2023-04-03T09:23:24;3.20;;;0.80;;
78778;SDS011;68121;52.404;5.318;2023-04-03T09:26:02;0.50;;;0.43;;
78778;SDS011;68121;52.404;5.318;2023-04-03T09:28:35;0.93;;;0.50;;
78778;SDS011;68121;52.404;5.318;2023-04-03T09:31:21;2.08;;;0.57;;
78778;SDS011;68121;52.404;5.318;2023-04-03T09:34:02;0.60;;;0.40;;
78778;SDS011;68121;52.404;5.318;2023-04-03T09:36:43;2.35;;;0.70;;
78778;SDS011;68121;52.404;5.318;2023-04-03T09:39:15;1.48;;;0.20;;
78778;SDS011;68121;52.404;5.318;2023-04-03T09:41:56;3.30;;;0.30;;
78778;SDS011;68121;52.404;5.318;2023-04-03T09:44:33;0.98;;;0.35;;
78778;SDS011;68121;52.404;5.318;2023-04-03T09:47:17;0.30;;;0.30;;
78778;SDS011;68121;52.404;5.318;2023-04-03T09:49:49;1.08;;;0.40;;
78778;SDS011;68121;52.404;5.318;2023-04-03T09:52:33;0.43;;;0.40;;
78778;SDS011;68121;52.404;5.318;2023-04-03T09:55:17;0.93;;;0.40;;
78778;SDS011;68121;52.404;5.318;2023-04-03T09:57:52;0.35;;;0.22;;
78778;SDS011;68121;52.404;5.318;2023-04-03T10:00:35;0.63;;;0.40;;
78778;SDS011;68121;52.404;5.318;2023-04-03T10:03:03;1.45;;;0.40;;
78778;SDS011;68121;52.404;5.318;2023-04-03T10:05:40;1.10;;;0.50;;
78778;SDS011;68121;52.404;5.318;2023-04-03T10:08:11;2.00;;;0.43;;
78778;SDS011;68121;52.404;5.318;2023-04-03T10:10:44;1.25;;;0.40;;
78778;SDS011;68121;52.404;5.318;2023-04-03T10:15:43;0.50;;;0.20;;
78778;SDS011;68121;52.404;5.318;2023-04-03T10:21:10;0.43;;;0.30;;
78778;SDS011;68121;52.404;5.318;2023-04-03T10:23:44;0.40;;;0.30;;
78778;SDS011;68121;52.404;5.318;2023-04-03T10:34:46;0.17;;;0.13;;
78778;SDS011;68121;52.404;5.318;2023-04-03T10:47:21;1.77;;;0.40;;
78778;SDS011;68121;52.404;5.318;2023-04-03T10:50:02;1.58;;;0.40;;
78778;SDS011;68121;52.404;5.318;2023-04-03T10:57:52;1.20;;;0.32;;
78778;SDS011;68121;52.404;5.318;2023-04-03T11:00:27;0.55;;;0.20;;
78778;SDS011;68121;52.404;5.318;2023-04-03T11:03:11;1.60;;;0.20;;
78778;SDS011;68121;52.404;5.318;2023-04-03T11:05:44;1.17;;;0.43;;
78778;SDS011;68121;52.404;5.318;2023-04-03T11:11:01;2.17;;;0.20;;
78778;SDS011;68121;52.404;5.318;2023-04-03T11:16:08;0.28;;;0.20;;
78778;SDS011;68121;52.404;5.318;2023-04-03T11:18:39;2.03;;;0.63;;
78778;SDS011;68121;52.404;5.318;2023-04-03T11:23:41;0.95;;;0.30;;
78778;SDS011;68121;52.404;5.318;2023-04-03T11:26:13;1.10;;;0.45;;
78778;SDS011;68121;52.404;5.318;2023-04-03T11:28:42;1.20;;;0.40;;
78778;SDS011;68121;52.404;5.318;2023-04-03T11:31:43;1.92;;;0.30;;
78778;SDS011;68121;52.404;5.318;2023-04-03T11:36:43;1.25;;;0.52;;
78778;SDS011;68121;52.404;5.318;2023-04-03T11:41:51;1.23;;;0.40;;
78778;SDS011;68121;52.404;5.318;2023-04-03T11:44:36;2.83;;;0.43;;
78778;SDS011;68121;52.404;5.318;2023-04-03T11:47:04;1.35;;;0.40;;
78778;SDS011;68121;52.404;5.318;2023-04-03T12:13:35;0.65;;;0.30;;
78778;SDS011;68121;52.404;5.318;2023-04-03T12:16:02;1.55;;;0.43;;
78778;SDS011;68121;52.404;5.318;2023-04-03T12:21:08;0.43;;;0.40;;
78778;SDS011;68121;52.404;5.318;2023-04-03T12:23:37;0.80;;;0.40;;
78778;SDS011;68121;52.404;5.318;2023-04-03T12:26:26;0.90;;;0.47;;
78778;SDS011;68121;52.404;5.318;2023-04-03T12:29:02;1.17;;;0.40;;
78778;SDS011;68121;52.404;5.318;2023-04-03T12:31:47;0.47;;;0.30;;
78778;SDS011;68121;52.404;5.318;2023-04-03T12:43:26;1.85;;;0.55;;
78778;SDS011;68121;52.404;5.318;2023-04-03T12:48:30;2.30;;;0.65;;
78778;SDS011;68121;52.404;5.318;2023-04-03T12:50:59;1.80;;;0.40;;
78778;SDS011;68121;52.404;5.318;2023-04-03T12:53:33;1.00;;;0.50;;
78778;SDS011;68121;52.404;5.318;2023-04-03T12:58:49;1.08;;;0.40;;
78778;SDS011;68121;52.404;5.318;2023-04-03T13:01:17;1.75;;;0.60;;
78778;SDS011;68121;52.404;5.318;2023-04-03T13:03:51;1.15;;;0.50;;
78778;SDS011;68121;52.404;5.318;2023-04-03T13:06:21;4.32;;;0.82;;
78778;SDS011;68121;52.404;5.318;2023-04-03T13:08:52;2.80;;;0.60;;
78778;SDS011;68121;52.404;5.318;2023-04-03T13:11:23;1.42;;;0.60;;
78778;SDS011;68121;52.404;5.318;2023-04-03T13:13:59;2.25;;;1.10;;
78778;SDS011;68121;52.404;5.318;2023-04-03T13:16:28;3.67;;;0.73;;
78778;SDS011;68121;52.404;5.318;2023-04-03T13:18:55;1.10;;;0.45;;
78778;SDS011;68121;52.404;5.318;2023-04-03T13:21:25;3.85;;;0.60;;
78778;SDS011;68121;52.404;5.318;2023-04-03T13:23:59;1.85;;;0.60;;
78778;SDS011;68121;52.404;5.318;2023-04-03T13:26:29;0.70;;;0.50;;
78778;SDS011;68121;52.404;5.318;2023-04-03T13:28:59;1.45;;;0.65;;
78778;SDS011;68121;52.404;5.318;2023-04-03T13:31:33;8.95;;;1.10;;
78778;SDS011;68121;52.404;5.318;2023-04-03T13:34:10;0.90;;;0.40;;
78778;SDS011;68121;52.404;5.318;2023-04-03T13:41:53;2.22;;;0.43;;
78778;SDS011;68121;52.404;5.318;2023-04-03T13:46:51;1.50;;;0.47;;
78778;SDS011;68121;52.404;5.318;2023-04-03T13:51:47;0.95;;;0.43;;
78778;SDS011;68121;52.404;5.318;2023-04-03T13:54:19;3.00;;;0.43;;
78778;SDS011;68121;52.404;5.318;2023-04-03T13:56:57;1.85;;;0.85;;
78778;SDS011;68121;52.404;5.318;2023-04-03T13:59:31;3.72;;;0.70;;
78778;SDS011;68121;52.404;5.318;2023-04-03T14:04:30;2.17;;;0.50;;
78778;SDS011;68121;52.404;5.318;2023-04-03T14:07:02;1.05;;;0.50;;
78778;SDS011;68121;52.404;5.318;2023-04-03T14:09:29;0.47;;;0.38;;
78778;SDS011;68121;52.404;5.318;2023-04-03T14:11:57;2.58;;;0.70;;
78778;SDS011;68121;52.404;5.318;2023-04-03T14:14:31;1.20;;;0.55;;
78778;SDS011;68121;52.404;5.318;2023-04-03T14:17:01;6.53;;;1.48;;
78778;SDS011;68121;52.404;5.318;2023-04-03T14:19:35;2.17;;;0.60;;
78778;SDS011;68121;52.404;5.318;2023-04-03T14:22:07;1.25;;;0.70;;
78778;SDS011;68121;52.404;5.318;2023-04-03T14:24:47;2.58;;;0.50;;
78778;SDS011;68121;52.404;5.318;2023-04-03T14:27:16;1.02;;;0.50;;
78778;SDS011;68121;52.404;5.318;2023-04-03T14:29:58;3.08;;;0.70;;
78778;SDS011;68121;52.404;5.318;2023-04-03T14:32:26;2.53;;;0.65;;
78778;SDS011;68121;52.404;5.318;2023-04-03T14:34:53;3.60;;;0.75;;
78778;SDS011;68121;52.404;5.318;2023-04-03T14:37:20;3.22;;;0.50;;
78778;SDS011;68121;52.404;5.318;2023-04-03T14:39:49;2.97;;;0.63;;
78778;SDS011;68121;52.404;5.318;2023-04-03T14:42:22;0.85;;;0.50;;
78778;SDS011;68121;52.404;5.318;2023-04-03T14:44:50;1.63;;;0.75;;
78778;SDS011;68121;52.404;5.318;2023-04-03T14:47:18;0.85;;;0.30;;
78778;SDS011;68121;52.404;5.318;2023-04-03T14:49:46;1.33;;;0.52;;
78778;SDS011;68121;52.404;5.318;2023-04-03T14:52:16;1.65;;;0.60;;
78778;SDS011;68121;52.404;5.318;2023-04-03T14:54:48;1.65;;;0.70;;
78778;SDS011;68121;52.404;5.318;2023-04-03T14:57:16;0.65;;;0.47;;
78778;SDS011;68121;52.404;5.318;2023-04-03T14:59:43;1.38;;;0.85;;
78778;SDS011;68121;52.404;5.318;2023-04-03T15:05:00;1.27;;;0.60;;
78778;SDS011;68121;52.404;5.318;2023-04-03T15:07:30;2.03;;;0.60;;
78778;SDS011;68121;52.404;5.318;2023-04-03T15:10:02;2.25;;;0.70;;
78778;SDS011;68121;52.404;5.318;2023-04-03T15:12:49;2.38;;;0.70;;
78778;SDS011;68121;52.404;5.318;2023-04-03T15:15:18;3.22;;;0.70;;
78778;SDS011;68121;52.404;5.318;2023-04-03T15:17:45;3.85;;;0.80;;
78778;SDS011;68121;52.404;5.318;2023-04-03T15:20:18;2.00;;;0.63;;
78778;SDS011;68121;52.404;5.318;2023-04-03T15:22:46;1.30;;;0.65;;
78778;SDS011;68121;52.404;5.318;2023-04-03T15:25:12;2.67;;;0.73;;
78778;SDS011;68121;52.404;5.318;2023-04-03T15:27:38;1.65;;;0.70;;
78778;SDS011;68121;52.404;5.318;2023-04-03T15:30:11;1.60;;;0.60;;
78778;SDS011;68121;52.404;5.318;2023-04-03T15:32:40;1.23;;;0.52;;
78778;SDS011;68121;52.404;5.318;2023-04-03T15:35:06;0.65;;;0.60;;
78778;SDS011;68121;52.404;5.318;2023-04-03T15:37:32;0.75;;;0.45;;
78778;SDS011;68121;52.404;5.318;2023-04-03T15:39:58;2.17;;;0.70;;
78778;SDS011;68121;52.404;5.318;2023-04-03T15:42:24;1.83;;;0.77;;
78778;SDS011;68121;52.404;5.318;2023-04-03T15:44:50;1.60;;;0.63;;
78778;SDS011;68121;52.404;5.318;2023-04-03T15:47:16;2.25;;;1.17;;
78778;SDS011;68121;52.404;5.318;2023-04-03T15:49:43;0.95;;;0.60;;
78778;SDS011;68121;52.404;5.318;2023-04-03T15:52:09;1.25;;;0.80;;
78778;SDS011;68121;52.404;5.318;2023-04-03T15:54:35;1.13;;;0.75;;
78778;SDS011;68121;52.404;5.318;2023-04-03T15:57:01;1.40;;;0.60;;
78778;SDS011;68121;52.404;5.318;2023-04-03T15:59:27;2.33;;;0.80;;
78778;SDS011;68121;52.404;5.318;2023-04-03T16:01:56;2.05;;;0.60;;
78778;SDS011;68121;52.404;5.318;2023-04-03T16:04:22;2.60;;;1.17;;
78778;SDS011;68121;52.404;5.318;2023-04-03T16:06:48;1.17;;;0.68;;
78778;SDS011;68121;52.404;5.318;2023-04-03T16:09:15;1.92;;;0.55;;
78778;SDS011;68121;52.404;5.318;2023-04-03T16:11:41;1.13;;;0.68;;
78778;SDS011;68121;52.404;5.318;2023-04-03T16:14:08;1.95;;;0.90;;
78778;SDS011;68121;52.404;5.318;2023-04-03T16:16:35;2.45;;;0.80;;
78778;SDS011;68121;52.404;5.318;2023-04-03T16:19:02;1.67;;;0.80;;
78778;SDS011;68121;52.404;5.318;2023-04-03T16:21:28;4.60;;;0.82;;
78778;SDS011;68121;52.404;5.318;2023-04-03T16:23:56;2.00;;;0.80;;
78778;SDS011;68121;52.404;5.318;2023-04-03T16:26:23;0.98;;;0.52;;
78778;SDS011;68121;52.404;5.318;2023-04-03T16:28:51;1.52;;;0.70;;
78778;SDS011;68121;52.404;5.318;2023-04-03T16:31:17;1.05;;;0.70;;
78778;SDS011;68121;52.404;5.318;2023-04-03T16:33:43;1.73;;;0.85;;
78778;SDS011;68121;52.404;5.318;2023-04-03T16:36:09;4.18;;;1.35;;
78778;SDS011;68121;52.404;5.318;2023-04-03T16:38:36;2.72;;;0.95;;
78778;SDS011;68121;52.404;5.318;2023-04-03T16:41:02;1.88;;;0.75;;
78778;SDS011;68121;52.404;5.318;2023-04-03T16:43:32;1.60;;;0.90;;
78778;SDS011;68121;52.404;5.318;2023-04-03T16:45:59;1.40;;;0.85;;
78778;SDS011;68121;52.404;5.318;2023-04-03T16:48:28;2.78;;;1.08;;
78778;SDS011;68121;52.404;5.318;2023-04-03T16:50:55;3.85;;;1.27;;
78778;SDS011;68121;52.404;5.318;2023-04-03T16:53:21;0.80;;;0.52;;
78778;SDS011;68121;52.404;5.318;2023-04-03T16:55:49;2.67;;;0.90;;